DNAA/ABV METAR and TAF weather

Enter ICAO airport designator
Station Type Date Time Source
DNAA METAR 2021/04/13 06:00 UTC NOAA

DNAA 130600Z 00000KT CAVOK 26/23 Q1012 NOSIG


Station Type Date Time Source
DNAA Decoded METAR 2021/04/13 06:00 UTC NOAA

Station name not available
Apr 13, 2021 - 02:00 AM EDT / 2021.04.13 0600 UTC
Wind: Calm:0
Visibility: greater than 7 mile(s):0
Temperature: 78 F (26 C)
Dew Point: 73 F (23 C)
Relative Humidity: 83%
Pressure (altimeter): 29.88 in. Hg (1012 hPa)
ob: DNAA 130600Z 00000KT CAVOK 26/23 Q1012 NOSIG
cycle: 6

Station Type Date Time Source
DNAA TAF 2021/04/12 18:21 UTC NOAA

TAF DNAA 121700Z 1218/1324 20007KT 9999 FEW015
BECMG 1219/1221 08010KT

Example: see airport list